Camp Pendleton MCAS (Munn Field) Airport Oceanside US
ICAO: KNFG
IATA: NFG
Category: Medium
Scheduled Services: No

Elevation: 78 ft
TransAlt. 18000 ft.

Airport Communications:
SOCAL APP/DEP:127.3
APP/DEP:128.45
ATIS:26.76
CLNC DEL:126.2
GND:128.775
MCB RANGE CON:123.2
BASE OPS:26.5
PMSV METRO:34.24
TWR:128.775

KNFG Zoom In..

Runways:

(A) RW 03 length 6005 ft width 200 ft
---- / hdg 31

(B) RW 21 length 6005 ft width 200 ft
---- / hdg 211

Location; KNFG
Day. 04 / Time. 14.14 Zulu
* Altimeter: 29.92
* Temperature: 14° c. 57.2°f.
* Wind from: 170° Speed 04 kn.
Dewpoint: 09° c.
Visibility: 10 Statute Miles.
Clouds: Scattered 2100 ft.
Clouds: Overcast 3800 ft.

KNFG 041414Z AUTO 17004KT 10SM SCT021 OVC038 14/09 A2992 RMK AO2 T01390089 $


Wind From 170°
Speed 04 kn.

 
 
jpsmedia worldairports.se 2020   terms of use